sensor_id;sensor_type;location;lat;lon;timestamp;P1;durP1;ratioP1;P2;durP2;ratioP2
53925;SDS011;39836;52.754;6.866;2022-10-17T00:01:04;13.65;;;6.78;;
53925;SDS011;39836;52.754;6.866;2022-10-17T00:03:30;12.05;;;7.15;;
53925;SDS011;39836;52.754;6.866;2022-10-17T00:05:57;15.20;;;6.60;;
53925;SDS011;39836;52.754;6.866;2022-10-17T00:08:22;10.32;;;7.00;;
53925;SDS011;39836;52.754;6.866;2022-10-17T00:10:58;15.35;;;7.28;;
53925;SDS011;39836;52.754;6.866;2022-10-17T00:13:26;12.02;;;6.60;;
53925;SDS011;39836;52.754;6.866;2022-10-17T00:15:52;12.95;;;7.65;;
53925;SDS011;39836;52.754;6.866;2022-10-17T00:18:18;13.10;;;6.97;;
53925;SDS011;39836;52.754;6.866;2022-10-17T00:20:44;12.90;;;7.68;;
53925;SDS011;39836;52.754;6.866;2022-10-17T00:23:10;10.43;;;6.80;;
53925;SDS011;39836;52.754;6.866;2022-10-17T00:25:35;15.45;;;7.65;;
53925;SDS011;39836;52.754;6.866;2022-10-17T00:28:01;12.45;;;7.43;;
53925;SDS011;39836;52.754;6.866;2022-10-17T00:30:27;14.45;;;7.85;;
53925;SDS011;39836;52.754;6.866;2022-10-17T00:32:53;11.65;;;7.72;;
53925;SDS011;39836;52.754;6.866;2022-10-17T00:35:19;11.10;;;7.70;;
53925;SDS011;39836;52.754;6.866;2022-10-17T00:37:45;14.30;;;8.10;;
53925;SDS011;39836;52.754;6.866;2022-10-17T00:40:11;10.48;;;7.72;;
53925;SDS011;39836;52.754;6.866;2022-10-17T00:42:36;17.55;;;7.78;;
53925;SDS011;39836;52.754;6.866;2022-10-17T00:47:39;12.77;;;8.20;;
53925;SDS011;39836;52.754;6.866;2022-10-17T00:50:08;13.07;;;7.95;;
53925;SDS011;39836;52.754;6.866;2022-10-17T00:52:34;11.07;;;7.82;;
53925;SDS011;39836;52.754;6.866;2022-10-17T00:55:14;12.93;;;7.80;;
53925;SDS011;39836;52.754;6.866;2022-10-17T00:57:43;12.65;;;8.10;;
53925;SDS011;39836;52.754;6.866;2022-10-17T01:00:10;19.05;;;8.63;;
53925;SDS011;39836;52.754;6.866;2022-10-17T01:02:37;12.80;;;8.60;;
53925;SDS011;39836;52.754;6.866;2022-10-17T01:05:03;13.10;;;8.68;;
53925;SDS011;39836;52.754;6.866;2022-10-17T01:07:31;10.07;;;7.93;;
53925;SDS011;39836;52.754;6.866;2022-10-17T01:09:57;14.13;;;8.40;;
53925;SDS011;39836;52.754;6.866;2022-10-17T01:12:24;12.13;;;8.55;;
53925;SDS011;39836;52.754;6.866;2022-10-17T01:18:09;11.32;;;8.60;;
53925;SDS011;39836;52.754;6.866;2022-10-17T01:31:46;11.63;;;9.05;;
53925;SDS011;39836;52.754;6.866;2022-10-17T01:34:29;13.18;;;9.65;;
53925;SDS011;39836;52.754;6.866;2022-10-17T01:37:01;13.70;;;9.90;;
53925;SDS011;39836;52.754;6.866;2022-10-17T01:45:20;13.20;;;10.85;;
53925;SDS011;39836;52.754;6.866;2022-10-17T01:48:13;18.38;;;11.40;;
53925;SDS011;39836;52.754;6.866;2022-10-17T01:50:44;15.55;;;11.10;;
53925;SDS011;39836;52.754;6.866;2022-10-17T01:53:32;13.55;;;10.90;;
53925;SDS011;39836;52.754;6.866;2022-10-17T01:56:02;15.25;;;11.40;;
53925;SDS011;39836;52.754;6.866;2022-10-17T01:58:32;14.57;;;11.70;;
53925;SDS011;39836;52.754;6.866;2022-10-17T02:01:03;19.00;;;11.82;;
53925;SDS011;39836;52.754;6.866;2022-10-17T02:03:30;14.40;;;11.88;;
53925;SDS011;39836;52.754;6.866;2022-10-17T02:05:58;17.80;;;11.95;;
53925;SDS011;39836;52.754;6.866;2022-10-17T02:08:30;17.88;;;12.05;;
53925;SDS011;39836;52.754;6.866;2022-10-17T02:11:08;15.23;;;11.25;;
53925;SDS011;39836;52.754;6.866;2022-10-17T02:30:10;21.17;;;12.70;;
53925;SDS011;39836;52.754;6.866;2022-10-17T02:33:21;16.23;;;11.98;;
53925;SDS011;39836;52.754;6.866;2022-10-17T02:35:48;17.55;;;14.00;;
53925;SDS011;39836;52.754;6.866;2022-10-17T02:38:18;19.33;;;14.70;;
53925;SDS011;39836;52.754;6.866;2022-10-17T02:40:45;20.77;;;15.07;;
53925;SDS011;39836;52.754;6.866;2022-10-17T02:43:14;18.23;;;14.18;;
53925;SDS011;39836;52.754;6.866;2022-10-17T02:45:40;18.27;;;13.65;;
53925;SDS011;39836;52.754;6.866;2022-10-17T02:48:18;19.67;;;14.35;;
53925;SDS011;39836;52.754;6.866;2022-10-17T02:53:24;20.45;;;14.60;;
53925;SDS011;39836;52.754;6.866;2022-10-17T02:55:59;16.50;;;13.32;;
53925;SDS011;39836;52.754;6.866;2022-10-17T02:58:30;19.05;;;14.80;;
53925;SDS011;39836;52.754;6.866;2022-10-17T03:00:57;19.00;;;15.35;;
53925;SDS011;39836;52.754;6.866;2022-10-17T03:03:25;21.48;;;14.90;;
53925;SDS011;39836;52.754;6.866;2022-10-17T03:05:55;18.63;;;14.25;;
53925;SDS011;39836;52.754;6.866;2022-10-17T03:08:20;20.00;;;14.77;;
53925;SDS011;39836;52.754;6.866;2022-10-17T03:10:47;20.70;;;15.68;;
53925;SDS011;39836;52.754;6.866;2022-10-17T03:13:13;16.38;;;14.68;;
53925;SDS011;39836;52.754;6.866;2022-10-17T03:15:39;18.77;;;14.52;;
53925;SDS011;39836;52.754;6.866;2022-10-17T03:18:05;20.67;;;14.63;;
53925;SDS011;39836;52.754;6.866;2022-10-17T03:20:31;20.27;;;15.98;;
53925;SDS011;39836;52.754;6.866;2022-10-17T03:22:57;18.92;;;15.32;;
53925;SDS011;39836;52.754;6.866;2022-10-17T03:25:22;20.48;;;15.63;;
53925;SDS011;39836;52.754;6.866;2022-10-17T03:27:48;22.38;;;15.60;;
53925;SDS011;39836;52.754;6.866;2022-10-17T03:30:14;23.23;;;16.90;;
53925;SDS011;39836;52.754;6.866;2022-10-17T03:32:40;19.92;;;15.40;;
53925;SDS011;39836;52.754;6.866;2022-10-17T03:35:05;21.70;;;14.82;;
53925;SDS011;39836;52.754;6.866;2022-10-17T03:37:31;22.73;;;16.67;;
53925;SDS011;39836;52.754;6.866;2022-10-17T03:39:57;22.17;;;15.52;;
53925;SDS011;39836;52.754;6.866;2022-10-17T03:42:22;23.63;;;16.00;;
53925;SDS011;39836;52.754;6.866;2022-10-17T03:44:48;25.67;;;17.17;;
53925;SDS011;39836;52.754;6.866;2022-10-17T03:47:14;20.45;;;15.98;;
53925;SDS011;39836;52.754;6.866;2022-10-17T03:49:39;21.20;;;16.50;;
53925;SDS011;39836;52.754;6.866;2022-10-17T03:52:05;19.48;;;15.82;;
53925;SDS011;39836;52.754;6.866;2022-10-17T03:54:34;22.33;;;17.23;;
53925;SDS011;39836;52.754;6.866;2022-10-17T03:57:00;22.40;;;17.63;;
53925;SDS011;39836;52.754;6.866;2022-10-17T03:59:25;19.13;;;15.95;;
53925;SDS011;39836;52.754;6.866;2022-10-17T04:01:51;21.55;;;17.65;;
53925;SDS011;39836;52.754;6.866;2022-10-17T04:04:17;24.02;;;17.73;;
53925;SDS011;39836;52.754;6.866;2022-10-17T04:06:42;21.80;;;18.58;;
53925;SDS011;39836;52.754;6.866;2022-10-17T04:09:08;20.02;;;17.15;;
53925;SDS011;39836;52.754;6.866;2022-10-17T04:11:35;22.25;;;17.75;;
53925;SDS011;39836;52.754;6.866;2022-10-17T04:14:00;24.85;;;18.38;;
53925;SDS011;39836;52.754;6.866;2022-10-17T04:16:26;23.42;;;18.50;;
53925;SDS011;39836;52.754;6.866;2022-10-17T04:18:56;24.30;;;18.23;;
53925;SDS011;39836;52.754;6.866;2022-10-17T04:21:23;27.10;;;19.45;;
53925;SDS011;39836;52.754;6.866;2022-10-17T04:23:54;27.38;;;19.92;;
53925;SDS011;39836;52.754;6.866;2022-10-17T04:26:21;26.30;;;19.23;;
53925;SDS011;39836;52.754;6.866;2022-10-17T04:28:47;26.40;;;19.73;;
53925;SDS011;39836;52.754;6.866;2022-10-17T04:31:13;27.75;;;19.27;;
53925;SDS011;39836;52.754;6.866;2022-10-17T04:33:40;27.33;;;19.88;;
53925;SDS011;39836;52.754;6.866;2022-10-17T04:36:08;34.33;;;20.65;;
53925;SDS011;39836;52.754;6.866;2022-10-17T04:38:36;28.73;;;21.88;;
53925;SDS011;39836;52.754;6.866;2022-10-17T04:41:03;33.58;;;21.63;;
53925;SDS011;39836;52.754;6.866;2022-10-17T04:43:30;31.35;;;21.63;;
53925;SDS011;39836;52.754;6.866;2022-10-17T04:46:01;27.40;;;21.30;;
53925;SDS011;39836;52.754;6.866;2022-10-17T04:48:28;32.42;;;23.67;;
53925;SDS011;39836;52.754;6.866;2022-10-17T04:50:58;31.45;;;22.98;;
53925;SDS011;39836;52.754;6.866;2022-10-17T04:53:26;35.08;;;24.67;;
53925;SDS011;39836;52.754;6.866;2022-10-17T04:55:52;33.55;;;24.40;;
53925;SDS011;39836;52.754;6.866;2022-10-17T04:58:18;33.03;;;23.35;;
53925;SDS011;39836;52.754;6.866;2022-10-17T05:00:45;34.67;;;24.67;;
53925;SDS011;39836;52.754;6.866;2022-10-17T05:03:10;33.35;;;25.08;;
53925;SDS011;39836;52.754;6.866;2022-10-17T05:05:37;36.80;;;25.52;;
53925;SDS011;39836;52.754;6.866;2022-10-17T05:08:03;34.47;;;24.98;;
53925;SDS011;39836;52.754;6.866;2022-10-17T05:10:34;39.63;;;26.52;;
53925;SDS011;39836;52.754;6.866;2022-10-17T05:13:00;35.70;;;24.55;;
53925;SDS011;39836;52.754;6.866;2022-10-17T05:15:26;40.25;;;27.20;;
53925;SDS011;39836;52.754;6.866;2022-10-17T05:17:55;38.90;;;25.42;;
53925;SDS011;39836;52.754;6.866;2022-10-17T05:20:21;38.85;;;27.10;;
53925;SDS011;39836;52.754;6.866;2022-10-17T05:22:48;31.38;;;25.10;;
53925;SDS011;39836;52.754;6.866;2022-10-17T05:25:13;35.15;;;24.83;;
53925;SDS011;39836;52.754;6.866;2022-10-17T05:27:39;38.08;;;27.52;;
53925;SDS011;39836;52.754;6.866;2022-10-17T05:30:05;33.42;;;26.17;;
53925;SDS011;39836;52.754;6.866;2022-10-17T05:32:31;34.70;;;25.48;;
53925;SDS011;39836;52.754;6.866;2022-10-17T05:34:57;35.83;;;25.30;;
53925;SDS011;39836;52.754;6.866;2022-10-17T05:37:22;36.20;;;25.98;;
53925;SDS011;39836;52.754;6.866;2022-10-17T05:39:48;36.63;;;25.25;;
53925;SDS011;39836;52.754;6.866;2022-10-17T05:42:14;34.92;;;25.92;;
53925;SDS011;39836;52.754;6.866;2022-10-17T05:44:39;30.50;;;23.73;;
53925;SDS011;39836;52.754;6.866;2022-10-17T05:47:06;31.35;;;23.73;;
53925;SDS011;39836;52.754;6.866;2022-10-17T05:49:34;34.40;;;23.27;;
53925;SDS011;39836;52.754;6.866;2022-10-17T05:52:00;32.97;;;24.35;;
53925;SDS011;39836;52.754;6.866;2022-10-17T05:54:26;39.53;;;25.48;;
53925;SDS011;39836;52.754;6.866;2022-10-17T05:56:52;34.63;;;23.42;;
53925;SDS011;39836;52.754;6.866;2022-10-17T05:59:19;35.88;;;24.17;;
53925;SDS011;39836;52.754;6.866;2022-10-17T06:01:45;33.10;;;23.23;;
53925;SDS011;39836;52.754;6.866;2022-10-17T06:04:11;33.83;;;23.35;;
53925;SDS011;39836;52.754;6.866;2022-10-17T06:06:37;29.85;;;21.95;;
53925;SDS011;39836;52.754;6.866;2022-10-17T06:09:04;33.58;;;22.67;;
53925;SDS011;39836;52.754;6.866;2022-10-17T06:11:30;36.80;;;21.92;;
53925;SDS011;39836;52.754;6.866;2022-10-17T06:13:56;32.75;;;22.27;;
53925;SDS011;39836;52.754;6.866;2022-10-17T06:16:21;32.55;;;23.15;;
53925;SDS011;39836;52.754;6.866;2022-10-17T06:18:47;33.40;;;22.23;;
53925;SDS011;39836;52.754;6.866;2022-10-17T06:21:14;32.45;;;23.02;;
53925;SDS011;39836;52.754;6.866;2022-10-17T06:23:41;31.27;;;23.60;;
53925;SDS011;39836;52.754;6.866;2022-10-17T06:26:07;29.90;;;20.98;;
53925;SDS011;39836;52.754;6.866;2022-10-17T06:28:33;30.85;;;22.65;;
53925;SDS011;39836;52.754;6.866;2022-10-17T06:31:04;33.38;;;22.77;;
53925;SDS011;39836;52.754;6.866;2022-10-17T06:33:31;31.15;;;21.60;;
53925;SDS011;39836;52.754;6.866;2022-10-17T06:35:57;34.10;;;23.40;;
53925;SDS011;39836;52.754;6.866;2022-10-17T06:38:22;31.05;;;22.20;;
53925;SDS011;39836;52.754;6.866;2022-10-17T06:40:48;30.20;;;22.70;;
53925;SDS011;39836;52.754;6.866;2022-10-17T06:43:14;33.78;;;22.60;;
53925;SDS011;39836;52.754;6.866;2022-10-17T06:45:40;29.63;;;23.38;;
53925;SDS011;39836;52.754;6.866;2022-10-17T06:48:06;31.08;;;23.00;;
53925;SDS011;39836;52.754;6.866;2022-10-17T06:50:33;30.40;;;23.63;;
53925;SDS011;39836;52.754;6.866;2022-10-17T06:52:59;32.08;;;22.77;;
53925;SDS011;39836;52.754;6.866;2022-10-17T06:55:24;29.15;;;21.95;;
53925;SDS011;39836;52.754;6.866;2022-10-17T06:57:50;32.13;;;21.50;;
53925;SDS011;39836;52.754;6.866;2022-10-17T07:00:19;29.33;;;21.30;;
53925;SDS011;39836;52.754;6.866;2022-10-17T07:02:45;30.48;;;21.17;;
53925;SDS011;39836;52.754;6.866;2022-10-17T07:05:10;29.05;;;19.60;;
53925;SDS011;39836;52.754;6.866;2022-10-17T07:07:36;30.95;;;20.20;;
53925;SDS011;39836;52.754;6.866;2022-10-17T07:10:02;30.33;;;19.55;;
53925;SDS011;39836;52.754;6.866;2022-10-17T07:12:32;26.10;;;19.17;;
53925;SDS011;39836;52.754;6.866;2022-10-17T07:14:59;28.98;;;19.70;;
53925;SDS011;39836;52.754;6.866;2022-10-17T07:17:25;25.13;;;17.42;;
53925;SDS011;39836;52.754;6.866;2022-10-17T07:19:50;26.58;;;18.60;;
53925;SDS011;39836;52.754;6.866;2022-10-17T07:22:16;23.33;;;18.05;;
53925;SDS011;39836;52.754;6.866;2022-10-17T07:24:42;24.65;;;16.45;;
53925;SDS011;39836;52.754;6.866;2022-10-17T07:27:07;25.60;;;15.88;;
53925;SDS011;39836;52.754;6.866;2022-10-17T07:29:33;23.75;;;15.00;;
53925;SDS011;39836;52.754;6.866;2022-10-17T07:31:58;25.05;;;15.00;;
53925;SDS011;39836;52.754;6.866;2022-10-17T07:34:24;21.70;;;13.35;;
53925;SDS011;39836;52.754;6.866;2022-10-17T07:36:52;19.27;;;11.98;;
53925;SDS011;39836;52.754;6.866;2022-10-17T07:39:18;19.20;;;13.27;;
53925;SDS011;39836;52.754;6.866;2022-10-17T07:41:43;15.30;;;12.02;;
53925;SDS011;39836;52.754;6.866;2022-10-17T07:44:09;20.52;;;12.02;;
53925;SDS011;39836;52.754;6.866;2022-10-17T07:46:35;16.23;;;11.60;;
53925;SDS011;39836;52.754;6.866;2022-10-17T07:49:01;19.33;;;11.85;;
53925;SDS011;39836;52.754;6.866;2022-10-17T07:51:26;15.52;;;10.73;;
53925;SDS011;39836;52.754;6.866;2022-10-17T07:53:52;13.52;;;10.25;;
53925;SDS011;39836;52.754;6.866;2022-10-17T07:56:18;15.98;;;11.27;;
53925;SDS011;39836;52.754;6.866;2022-10-17T07:58:45;14.77;;;10.50;;
53925;SDS011;39836;52.754;6.866;2022-10-17T08:01:12;15.57;;;10.65;;
53925;SDS011;39836;52.754;6.866;2022-10-17T08:03:38;17.20;;;10.43;;
53925;SDS011;39836;52.754;6.866;2022-10-17T08:06:05;14.20;;;10.10;;
53925;SDS011;39836;52.754;6.866;2022-10-17T08:08:31;19.23;;;10.30;;
53925;SDS011;39836;52.754;6.866;2022-10-17T08:11:00;17.38;;;10.10;;
53925;SDS011;39836;52.754;6.866;2022-10-17T08:13:29;14.80;;;10.57;;
53925;SDS011;39836;52.754;6.866;2022-10-17T08:15:57;13.13;;;9.75;;
53925;SDS011;39836;52.754;6.866;2022-10-17T08:18:24;15.05;;;9.98;;
53925;SDS011;39836;52.754;6.866;2022-10-17T08:20:50;16.10;;;10.55;;
53925;SDS011;39836;52.754;6.866;2022-10-17T08:23:15;13.23;;;9.88;;
53925;SDS011;39836;52.754;6.866;2022-10-17T08:25:41;16.42;;;11.20;;
53925;SDS011;39836;52.754;6.866;2022-10-17T08:28:07;16.10;;;10.75;;
53925;SDS011;39836;52.754;6.866;2022-10-17T08:30:32;14.80;;;10.45;;
53925;SDS011;39836;52.754;6.866;2022-10-17T08:32:58;14.15;;;10.45;;
53925;SDS011;39836;52.754;6.866;2022-10-17T08:35:24;17.55;;;11.27;;
53925;SDS011;39836;52.754;6.866;2022-10-17T08:37:49;20.45;;;10.90;;
53925;SDS011;39836;52.754;6.866;2022-10-17T08:40:20;14.45;;;9.55;;
53925;SDS011;39836;52.754;6.866;2022-10-17T08:45:51;17.95;;;11.23;;
53925;SDS011;39836;52.754;6.866;2022-10-17T08:48:22;15.30;;;9.88;;
53925;SDS011;39836;52.754;6.866;2022-10-17T08:51:00;15.07;;;9.88;;
53925;SDS011;39836;52.754;6.866;2022-10-17T08:53:39;13.63;;;9.40;;
53925;SDS011;39836;52.754;6.866;2022-10-17T08:56:17;13.68;;;9.75;;
53925;SDS011;39836;52.754;6.866;2022-10-17T08:58:51;19.05;;;10.43;;
53925;SDS011;39836;52.754;6.866;2022-10-17T09:01:27;20.27;;;10.73;;
53925;SDS011;39836;52.754;6.866;2022-10-17T09:04:24;15.68;;;9.75;;
53925;SDS011;39836;52.754;6.866;2022-10-17T09:07:14;17.90;;;9.88;;
53925;SDS011;39836;52.754;6.866;2022-10-17T09:13:01;16.65;;;9.73;;
53925;SDS011;39836;52.754;6.866;2022-10-17T09:18:32;15.23;;;9.75;;
53925;SDS011;39836;52.754;6.866;2022-10-17T09:21:21;13.52;;;9.90;;
53925;SDS011;39836;52.754;6.866;2022-10-17T09:24:05;13.07;;;10.02;;
53925;SDS011;39836;52.754;6.866;2022-10-17T09:26:38;14.45;;;9.88;;
53925;SDS011;39836;52.754;6.866;2022-10-17T09:29:10;16.25;;;9.70;;
53925;SDS011;39836;52.754;6.866;2022-10-17T09:31:44;15.82;;;9.65;;
53925;SDS011;39836;52.754;6.866;2022-10-17T09:34:15;15.43;;;10.38;;
53925;SDS011;39836;52.754;6.866;2022-10-17T09:36:41;14.77;;;9.63;;
53925;SDS011;39836;52.754;6.866;2022-10-17T09:39:12;14.45;;;9.05;;
53925;SDS011;39836;52.754;6.866;2022-10-17T09:41:49;17.45;;;9.68;;
53925;SDS011;39836;52.754;6.866;2022-10-17T09:49:16;14.52;;;9.13;;
53925;SDS011;39836;52.754;6.866;2022-10-17T09:51:44;18.27;;;9.73;;
53925;SDS011;39836;52.754;6.866;2022-10-17T09:54:54;15.98;;;10.20;;
53925;SDS011;39836;52.754;6.866;2022-10-17T09:57:07;13.00;;;9.77;;
53925;SDS011;39836;52.754;6.866;2022-10-17T09:59:39;13.95;;;9.45;;
53925;SDS011;39836;52.754;6.866;2022-10-17T10:02:16;11.98;;;9.70;;
53925;SDS011;39836;52.754;6.866;2022-10-17T10:04:51;13.15;;;10.10;;
53925;SDS011;39836;52.754;6.866;2022-10-17T10:07:18;16.20;;;10.05;;
53925;SDS011;39836;52.754;6.866;2022-10-17T10:09:46;15.95;;;10.38;;
53925;SDS011;39836;52.754;6.866;2022-10-17T10:12:20;16.75;;;10.52;;
53925;SDS011;39836;52.754;6.866;2022-10-17T10:14:49;20.33;;;12.55;;
53925;SDS011;39836;52.754;6.866;2022-10-17T10:19:58;24.48;;;13.25;;
53925;SDS011;39836;52.754;6.866;2022-10-17T10:22:24;22.77;;;14.07;;
53925;SDS011;39836;52.754;6.866;2022-10-17T10:25:05;18.73;;;14.20;;
53925;SDS011;39836;52.754;6.866;2022-10-17T10:27:34;21.92;;;15.18;;
53925;SDS011;39836;52.754;6.866;2022-10-17T10:30:00;19.73;;;14.10;;
53925;SDS011;39836;52.754;6.866;2022-10-17T10:32:28;19.25;;;15.10;;
53925;SDS011;39836;52.754;6.866;2022-10-17T10:34:58;19.17;;;14.77;;
53925;SDS011;39836;52.754;6.866;2022-10-17T10:37:37;25.92;;;16.60;;
53925;SDS011;39836;52.754;6.866;2022-10-17T10:40:16;25.92;;;16.63;;
53925;SDS011;39836;52.754;6.866;2022-10-17T10:42:46;23.50;;;16.05;;
53925;SDS011;39836;52.754;6.866;2022-10-17T10:47:59;22.35;;;16.33;;
53925;SDS011;39836;52.754;6.866;2022-10-17T10:50:37;29.00;;;17.23;;
53925;SDS011;39836;52.754;6.866;2022-10-17T10:56:09;32.22;;;19.05;;
53925;SDS011;39836;52.754;6.866;2022-10-17T11:01:36;28.65;;;19.55;;
53925;SDS011;39836;52.754;6.866;2022-10-17T11:04:20;40.08;;;23.27;;
53925;SDS011;39836;52.754;6.866;2022-10-17T11:06:48;31.42;;;19.48;;
53925;SDS011;39836;52.754;6.866;2022-10-17T11:09:31;39.83;;;21.67;;
53925;SDS011;39836;52.754;6.866;2022-10-17T11:12:22;31.60;;;20.48;;
53925;SDS011;39836;52.754;6.866;2022-10-17T11:15:00;33.78;;;20.85;;
53925;SDS011;39836;52.754;6.866;2022-10-17T11:28:01;29.55;;;19.35;;
53925;SDS011;39836;52.754;6.866;2022-10-17T11:30:58;33.38;;;22.70;;
53925;SDS011;39836;52.754;6.866;2022-10-17T11:33:33;29.52;;;20.20;;
53925;SDS011;39836;52.754;6.866;2022-10-17T11:36:19;33.47;;;20.58;;
53925;SDS011;39836;52.754;6.866;2022-10-17T11:38:51;32.20;;;21.02;;
53925;SDS011;39836;52.754;6.866;2022-10-17T11:41:25;25.63;;;18.52;;
53925;SDS011;39836;52.754;6.866;2022-10-17T11:43:57;26.48;;;18.95;;
53925;SDS011;39836;52.754;6.866;2022-10-17T11:46:29;32.05;;;20.42;;
53925;SDS011;39836;52.754;6.866;2022-10-17T11:49:05;28.50;;;20.08;;
53925;SDS011;39836;52.754;6.866;2022-10-17T11:51:59;27.15;;;18.80;;
53925;SDS011;39836;52.754;6.866;2022-10-17T11:59:53;19.83;;;14.02;;
53925;SDS011;39836;52.754;6.866;2022-10-17T12:05:21;21.27;;;15.63;;
53925;SDS011;39836;52.754;6.866;2022-10-17T12:10:49;18.88;;;14.68;;
53925;SDS011;39836;52.754;6.866;2022-10-17T12:18:43;17.70;;;12.90;;
53925;SDS011;39836;52.754;6.866;2022-10-17T12:21:10;17.48;;;13.57;;
53925;SDS011;39836;52.754;6.866;2022-10-17T12:23:36;18.63;;;13.13;;
53925;SDS011;39836;52.754;6.866;2022-10-17T12:26:05;15.95;;;11.48;;
53925;SDS011;39836;52.754;6.866;2022-10-17T12:28:33;16.70;;;12.13;;
53925;SDS011;39836;52.754;6.866;2022-10-17T12:31:08;17.13;;;12.95;;
53925;SDS011;39836;52.754;6.866;2022-10-17T12:33:50;17.58;;;13.30;;
53925;SDS011;39836;52.754;6.866;2022-10-17T12:54:53;13.68;;;10.45;;
53925;SDS011;39836;52.754;6.866;2022-10-17T12:57:29;15.02;;;10.93;;
53925;SDS011;39836;52.754;6.866;2022-10-17T13:02:46;15.35;;;11.43;;
53925;SDS011;39836;52.754;6.866;2022-10-17T13:07:51;14.95;;;11.63;;
53925;SDS011;39836;52.754;6.866;2022-10-17T13:10:19;15.18;;;10.77;;
53925;SDS011;39836;52.754;6.866;2022-10-17T13:12:47;14.55;;;10.55;;
53925;SDS011;39836;52.754;6.866;2022-10-17T13:15:15;14.15;;;11.15;;
53925;SDS011;39836;52.754;6.866;2022-10-17T13:17:43;16.40;;;11.65;;
53925;SDS011;39836;52.754;6.866;2022-10-17T13:20:19;14.90;;;10.40;;
53925;SDS011;39836;52.754;6.866;2022-10-17T13:22:49;13.70;;;11.02;;
53925;SDS011;39836;52.754;6.866;2022-10-17T13:25:16;14.15;;;11.65;;
53925;SDS011;39836;52.754;6.866;2022-10-17T13:27:43;13.52;;;10.57;;
53925;SDS011;39836;52.754;6.866;2022-10-17T13:30:44;14.77;;;10.63;;
53925;SDS011;39836;52.754;6.866;2022-10-17T13:33:02;14.57;;;11.30;;
53925;SDS011;39836;52.754;6.866;2022-10-17T13:35:38;15.40;;;11.32;;
53925;SDS011;39836;52.754;6.866;2022-10-17T13:38:04;13.15;;;11.35;;
53925;SDS011;39836;52.754;6.866;2022-10-17T13:40:37;15.25;;;11.65;;
53925;SDS011;39836;52.754;6.866;2022-10-17T13:43:08;14.70;;;11.10;;
53925;SDS011;39836;52.754;6.866;2022-10-17T13:45:49;14.82;;;11.43;;
53925;SDS011;39836;52.754;6.866;2022-10-17T13:48:18;14.32;;;10.48;;
53925;SDS011;39836;52.754;6.866;2022-10-17T13:50:46;15.95;;;11.70;;
53925;SDS011;39836;52.754;6.866;2022-10-17T13:58:24;15.68;;;10.45;;
53925;SDS011;39836;52.754;6.866;2022-10-17T14:00:53;13.25;;;10.43;;
53925;SDS011;39836;52.754;6.866;2022-10-17T14:03:20;12.18;;;10.25;;
53925;SDS011;39836;52.754;6.866;2022-10-17T14:06:00;11.35;;;9.57;;
53925;SDS011;39836;52.754;6.866;2022-10-17T14:09:15;15.95;;;10.32;;
53925;SDS011;39836;52.754;6.866;2022-10-17T14:11:41;15.05;;;10.80;;
53925;SDS011;39836;52.754;6.866;2022-10-17T14:14:20;14.77;;;10.32;;
53925;SDS011;39836;52.754;6.866;2022-10-17T14:16:47;14.60;;;11.48;;
53925;SDS011;39836;52.754;6.866;2022-10-17T14:19:22;14.23;;;10.82;;
53925;SDS011;39836;52.754;6.866;2022-10-17T14:21:54;17.35;;;10.75;;
53925;SDS011;39836;52.754;6.866;2022-10-17T14:24:37;17.20;;;11.90;;
53925;SDS011;39836;52.754;6.866;2022-10-17T14:27:23;17.90;;;10.00;;
53925;SDS011;39836;52.754;6.866;2022-10-17T14:30:27;9.63;;;5.88;;
53925;SDS011;39836;52.754;6.866;2022-10-17T14:32:53;8.13;;;5.97;;
53925;SDS011;39836;52.754;6.866;2022-10-17T14:35:21;7.05;;;4.00;;
53925;SDS011;39836;52.754;6.866;2022-10-17T14:37:48;6.75;;;4.22;;
53925;SDS011;39836;52.754;6.866;2022-10-17T14:40:23;6.80;;;4.22;;
53925;SDS011;39836;52.754;6.866;2022-10-17T14:42:50;6.68;;;4.28;;
53925;SDS011;39836;52.754;6.866;2022-10-17T14:45:22;6.40;;;4.10;;
53925;SDS011;39836;52.754;6.866;2022-10-17T14:47:52;7.35;;;4.40;;
53925;SDS011;39836;52.754;6.866;2022-10-17T14:50:22;8.57;;;4.10;;
53925;SDS011;39836;52.754;6.866;2022-10-17T14:55:30;12.77;;;4.28;;
53925;SDS011;39836;52.754;6.866;2022-10-17T14:57:58;8.20;;;4.30;;
53925;SDS011;39836;52.754;6.866;2022-10-17T15:00:25;7.38;;;3.65;;
53925;SDS011;39836;52.754;6.866;2022-10-17T15:02:51;5.93;;;3.35;;
53925;SDS011;39836;52.754;6.866;2022-10-17T15:05:18;6.43;;;3.65;;
53925;SDS011;39836;52.754;6.866;2022-10-17T15:07:45;7.85;;;3.60;;
53925;SDS011;39836;52.754;6.866;2022-10-17T15:12:52;5.55;;;2.90;;
53925;SDS011;39836;52.754;6.866;2022-10-17T15:15:18;3.95;;;2.40;;
53925;SDS011;39836;52.754;6.866;2022-10-17T15:17:43;5.05;;;2.42;;
53925;SDS011;39836;52.754;6.866;2022-10-17T15:20:11;4.90;;;2.35;;
53925;SDS011;39836;52.754;6.866;2022-10-17T15:22:39;4.38;;;2.20;;
53925;SDS011;39836;52.754;6.866;2022-10-17T15:25:04;6.40;;;2.40;;
53925;SDS011;39836;52.754;6.866;2022-10-17T15:27:30;3.78;;;2.30;;
53925;SDS011;39836;52.754;6.866;2022-10-17T15:29:56;7.22;;;3.15;;
53925;SDS011;39836;52.754;6.866;2022-10-17T15:32:22;4.05;;;2.72;;
53925;SDS011;39836;52.754;6.866;2022-10-17T15:34:48;6.18;;;2.85;;
53925;SDS011;39836;52.754;6.866;2022-10-17T15:37:16;6.45;;;2.80;;
53925;SDS011;39836;52.754;6.866;2022-10-17T15:39:46;3.45;;;2.60;;
53925;SDS011;39836;52.754;6.866;2022-10-17T15:42:20;5.00;;;2.50;;
53925;SDS011;39836;52.754;6.866;2022-10-17T15:44:47;4.35;;;2.75;;
53925;SDS011;39836;52.754;6.866;2022-10-17T15:49:50;6.40;;;2.70;;
53925;SDS011;39836;52.754;6.866;2022-10-17T15:52:17;3.85;;;2.60;;
53925;SDS011;39836;52.754;6.866;2022-10-17T15:54:43;8.35;;;3.00;;
53925;SDS011;39836;52.754;6.866;2022-10-17T15:57:17;5.25;;;3.60;;
53925;SDS011;39836;52.754;6.866;2022-10-17T15:59:54;5.95;;;2.85;;
53925;SDS011;39836;52.754;6.866;2022-10-17T16:02:21;8.00;;;3.30;;
53925;SDS011;39836;52.754;6.866;2022-10-17T16:04:48;4.85;;;3.28;;
53925;SDS011;39836;52.754;6.866;2022-10-17T16:07:14;5.28;;;3.33;;
53925;SDS011;39836;52.754;6.866;2022-10-17T16:09:40;6.68;;;4.20;;
53925;SDS011;39836;52.754;6.866;2022-10-17T16:12:10;6.90;;;4.32;;
53925;SDS011;39836;52.754;6.866;2022-10-17T16:14:39;11.65;;;4.85;;
53925;SDS011;39836;52.754;6.866;2022-10-17T16:17:04;6.95;;;5.00;;
53925;SDS011;39836;52.754;6.866;2022-10-17T16:19:30;6.53;;;4.88;;
53925;SDS011;39836;52.754;6.866;2022-10-17T16:21:56;8.85;;;5.40;;
53925;SDS011;39836;52.754;6.866;2022-10-17T16:24:22;7.38;;;5.30;;
53925;SDS011;39836;52.754;6.866;2022-10-17T16:26:49;7.88;;;5.55;;
53925;SDS011;39836;52.754;6.866;2022-10-17T16:29:15;6.68;;;5.68;;
53925;SDS011;39836;52.754;6.866;2022-10-17T16:31:41;7.30;;;5.75;;
53925;SDS011;39836;52.754;6.866;2022-10-17T16:34:09;8.38;;;5.70;;
53925;SDS011;39836;52.754;6.866;2022-10-17T16:36:37;8.90;;;5.55;;
53925;SDS011;39836;52.754;6.866;2022-10-17T16:39:04;9.70;;;5.18;;
53925;SDS011;39836;52.754;6.866;2022-10-17T16:41:30;9.07;;;5.68;;
53925;SDS011;39836;52.754;6.866;2022-10-17T16:43:59;8.25;;;5.75;;
53925;SDS011;39836;52.754;6.866;2022-10-17T16:46:27;9.15;;;6.13;;
53925;SDS011;39836;52.754;6.866;2022-10-17T16:48:54;11.65;;;7.05;;
53925;SDS011;39836;52.754;6.866;2022-10-17T16:51:20;11.32;;;8.18;;
53925;SDS011;39836;52.754;6.866;2022-10-17T16:53:47;17.65;;;8.82;;